Normal, IL

2:31 AM CDT on November 01, 2014 (GMT -0500)
Across from IWU | Change Station
CLOSE
Current Station
Personal Weather Station
Location: Bloomington, IL
Elevation: 810 ft
Nearby Weather Stations
Active Advisory: Freeze Warning

Elev 810 ft 40.49 °N, 88.99 °W | Updated 54 seconds ago

Clear
Clear
32.4 °F
Feels Like 24 °F
N
10.0
Wind Variable Wind from NNW
Gusts 13.0 mph

Today
High -- | Low -- °F
--% Chance of Precip.
Yesterday
High -- | Low -- °F
Precip. -- in
7:25 AM 5:52 PM
Waxing Gibbous, 64% visible
Pressure 30.39 in
Visibility 10.0 miles
Clouds Clear
Windchill 24 °F
Dew Point 23 °F
Humidity 68%
Rainfall 0.00 in
Snow Depth Not available.
UV 0 out of 12
Pollen .10 out of 12
Air Quality Not available.
Flu Activity Not available.
METAR KBMI 010656Z AUTO 34013KT 10SM CLR M01/M06 A3035 RMK AO2 T10051055 SLP290

More Conditions Fewer Conditions

Pressure 30.39 in
Visibility 10.0 miles
Clouds Clear
Windchill 24 °F
Dew Point 23 °F
Humidity 68%
Rainfall 0.00 in
Snow Depth Not available.
UV 0 out of 12
Pollen .10 out of 12
Air Quality Not available.
Flu Activity Not available.
METAR KBMI 010656Z AUTO 34013KT 10SM CLR M01/M06 A3035 RMK AO2 T10051055 SLP290

More Conditions Fewer Conditions

10-Day Weather Forecast

Almanac

Astronomy

Nov. 01, 2014 Rise Set
Actual Time
Civil Twilight
Nautical Twilight
Astronomical Twilight
Moon
Length of Visible Light
Length of Day
Tomorrow will be .
, % of the Moon is Illuminated

Today's Extremes

State Highs State Lows

Community

WunderPhotos

Upload Photos

1,766,866 photos uploaded!

WunderBlogs® & News

Nearby

Air Quality

  Air Quality AQ Index Pollutant
Not available.

Snow Depth

Station Depth Elevation

Earthquake Activity

City Distance Mag. Time & Date
Minimum magnitude displayed is 2.5.

Coastal Water Temperatures

Place Temperature

Nearby Weather Stations